createdAt,value
2018-03-25T00:00:02.422Z,86.06
2018-03-25T00:02:31.452Z,86.34
2018-03-25T00:04:59.714Z,86.66
2018-03-25T00:07:28.025Z,86.50
2018-03-25T00:09:56.284Z,86.12
2018-03-25T00:12:24.540Z,86.18
2018-03-25T00:14:52.811Z,85.76
2018-03-25T00:17:21.070Z,85.30
2018-03-25T00:19:50.095Z,86.06
2018-03-25T00:22:18.360Z,87.65
2018-03-25T00:24:46.659Z,87.65
2018-03-25T00:27:14.924Z,87.69
2018-03-25T00:29:43.181Z,86.93
2018-03-25T00:32:11.455Z,86.16
2018-03-25T00:34:39.724Z,85.94
2018-03-25T00:37:08.767Z,85.63
2018-03-25T00:39:37.024Z,86.04
2018-03-25T00:42:05.286Z,86.59
2018-03-25T00:44:33.557Z,86.53
2018-03-25T00:47:01.814Z,87.06
2018-03-25T00:49:30.879Z,87.29
2018-03-25T00:51:59.176Z,86.68
2018-03-25T00:54:28.200Z,86.01
2018-03-25T00:56:56.455Z,85.44
2018-03-25T00:59:25.555Z,85.65
2018-03-25T01:01:54.574Z,86.41
2018-03-25T01:04:22.837Z,87.32
2018-03-25T01:06:51.112Z,86.38
2018-03-25T01:09:19.367Z,86.87
2018-03-25T01:11:48.394Z,87.99
2018-03-25T01:14:16.668Z,89.36
2018-03-25T01:16:44.940Z,89.02
2018-03-25T01:19:13.205Z,87.99
2018-03-25T01:21:41.465Z,87.20
2018-03-25T01:24:10.492Z,86.48
2018-03-25T01:26:38.753Z,86.75
2018-03-25T01:29:07.005Z,86.58
2018-03-25T01:31:36.035Z,86.62
2018-03-25T01:34:04.300Z,86.15
2018-03-25T01:36:32.563Z,85.91
2018-03-25T01:39:00.843Z,85.61
2018-03-25T01:41:29.869Z,85.80
2018-03-25T01:43:58.923Z,86.14
2018-03-25T01:46:27.956Z,87.48
2018-03-25T01:48:56.203Z,87.59
2018-03-25T01:51:24.471Z,87.83
2018-03-25T01:53:52.783Z,87.38
2018-03-25T01:56:21.064Z,87.47
2018-03-25T01:58:49.375Z,88.47
2018-03-25T02:01:17.654Z,89.37
2018-03-25T02:03:45.927Z,89.24
2018-03-25T02:06:14.257Z,89.28
2018-03-25T02:08:42.521Z,90.37
2018-03-25T02:11:10.842Z,90.13
2018-03-25T02:13:39.191Z,90.42
2018-03-25T02:16:07.556Z,90.70
2018-03-25T02:18:35.907Z,90.15
2018-03-25T02:21:05.870Z,89.21
2018-03-25T02:23:34.217Z,88.33
2018-03-25T02:26:02.603Z,88.37
2018-03-25T02:28:30.979Z,91.67
2018-03-25T02:30:59.340Z,93.90
2018-03-25T02:33:27.640Z,94.81
2018-03-25T02:35:55.909Z,94.28
2018-03-25T02:38:24.201Z,93.39
2018-03-25T02:40:52.482Z,93.85
2018-03-25T02:43:20.774Z,93.44
2018-03-25T02:45:49.063Z,92.20
2018-03-25T02:48:17.337Z,91.12
2018-03-25T02:50:45.609Z,90.17
2018-03-25T02:53:13.885Z,89.62
2018-03-25T02:55:42.167Z,88.82
2018-03-25T02:58:10.440Z,88.49
2018-03-25T03:00:38.704Z,89.77
2018-03-25T03:03:06.988Z,89.75
2018-03-25T03:05:35.256Z,90.32
2018-03-25T03:08:03.524Z,89.63
2018-03-25T03:10:31.817Z,89.36
2018-03-25T03:13:00.090Z,90.28
2018-03-25T03:15:28.355Z,91.27
2018-03-25T03:17:56.639Z,91.30
2018-03-25T03:20:24.944Z,92.60
2018-03-25T03:22:53.207Z,92.54
2018-03-25T03:25:21.499Z,92.63
2018-03-25T03:27:49.775Z,92.09
2018-03-25T03:30:18.085Z,90.84
2018-03-25T03:32:46.348Z,89.75
2018-03-25T03:35:15.428Z,89.33
2018-03-25T03:37:43.712Z,88.71
2018-03-25T03:40:12.760Z,88.34
2018-03-25T03:42:41.791Z,88.56
2018-03-25T03:45:10.081Z,88.67
2018-03-25T03:47:39.136Z,88.09
2018-03-25T03:50:07.409Z,87.68
2018-03-25T03:52:35.697Z,86.92
2018-03-25T03:55:03.963Z,87.47
2018-03-25T03:57:32.237Z,88.47
2018-03-25T04:00:00.526Z,88.81
2018-03-25T04:02:28.868Z,88.43
2018-03-25T04:04:57.145Z,87.87
2018-03-25T04:07:25.424Z,89.14
2018-03-25T04:09:53.684Z,89.33
2018-03-25T04:12:21.971Z,88.64
2018-03-25T04:14:50.233Z,88.17
2018-03-25T04:17:18.516Z,88.43
2018-03-25T04:19:46.778Z,90.30
2018-03-25T04:22:15.061Z,89.25
2018-03-25T04:24:43.358Z,89.42
2018-03-25T04:27:11.619Z,88.33
2018-03-25T04:29:39.958Z,88.46
2018-03-25T04:32:08.184Z,88.46
2018-03-25T04:34:36.457Z,88.75
2018-03-25T04:37:04.767Z,88.18
2018-03-25T04:39:33.014Z,88.33
2018-03-25T04:42:01.284Z,88.22
2018-03-25T04:44:29.571Z,88.18
2018-03-25T04:46:57.832Z,88.85
2018-03-25T04:49:26.100Z,87.86
2018-03-25T04:51:54.405Z,87.24
2018-03-25T04:54:22.671Z,87.34
2018-03-25T04:56:50.952Z,87.35
2018-03-25T04:59:19.275Z,86.76
2018-03-25T05:01:47.501Z,86.59
2018-03-25T05:04:15.780Z,87.80
2018-03-25T05:06:44.075Z,87.58
2018-03-25T05:09:12.355Z,88.23
2018-03-25T05:11:40.631Z,89.23
2018-03-25T05:14:08.920Z,89.86
2018-03-25T05:16:37.204Z,88.95
2018-03-25T05:19:05.484Z,87.94
2018-03-25T05:21:33.773Z,87.27
2018-03-25T05:24:02.075Z,86.94
2018-03-25T05:26:30.369Z,86.79
2018-03-25T05:28:58.672Z,87.36
2018-03-25T05:31:28.448Z,88.45
2018-03-25T05:33:56.738Z,89.63
2018-03-25T05:36:25.012Z,89.66
2018-03-25T05:38:53.315Z,89.92
2018-03-25T05:41:21.576Z,89.67
2018-03-25T05:43:49.839Z,89.48
2018-03-25T05:46:18.122Z,89.29
2018-03-25T05:48:46.385Z,89.05
2018-03-25T05:51:14.667Z,88.93
2018-03-25T05:53:42.931Z,88.98
2018-03-25T05:56:11.200Z,88.37
2018-03-25T05:58:39.488Z,89.03
2018-03-25T06:01:07.775Z,89.20
2018-03-25T06:03:36.039Z,89.80
2018-03-25T06:06:04.320Z,89.99
2018-03-25T06:08:32.582Z,89.66
2018-03-25T06:11:00.875Z,88.85
2018-03-25T06:13:29.152Z,88.39
2018-03-25T06:15:57.435Z,88.31
2018-03-25T06:18:25.692Z,87.63
2018-03-25T06:20:53.965Z,87.62
2018-03-25T06:23:22.250Z,87.68
2018-03-25T06:25:50.500Z,87.62
2018-03-25T06:28:18.772Z,87.44
2018-03-25T06:30:47.836Z,87.58
2018-03-25T06:33:16.094Z,87.36
2018-03-25T06:35:44.367Z,87.05
2018-03-25T06:38:12.633Z,87.04
2018-03-25T06:40:40.932Z,87.12
2018-03-25T06:43:09.192Z,86.75
2018-03-25T06:45:37.455Z,86.27
2018-03-25T06:48:05.722Z,85.95
2018-03-25T06:50:33.969Z,85.99
2018-03-25T06:53:03.005Z,86.54
2018-03-25T06:55:31.288Z,86.16
2018-03-25T06:57:59.635Z,85.72
2018-03-25T07:00:27.958Z,85.27
2018-03-25T07:02:56.266Z,84.90
2018-03-25T07:05:25.366Z,84.19
2018-03-25T07:07:53.706Z,84.03
2018-03-25T07:10:22.031Z,83.42
2018-03-25T07:12:50.383Z,83.68
2018-03-25T07:15:19.480Z,83.71
2018-03-25T07:17:48.572Z,83.62
2018-03-25T07:20:17.681Z,83.70
2018-03-25T07:22:46.017Z,83.68
2018-03-25T07:25:15.138Z,83.58
2018-03-25T07:27:44.262Z,83.35
2018-03-25T07:30:12.632Z,83.49
2018-03-25T07:32:40.987Z,83.37
2018-03-25T07:35:10.138Z,82.56
2018-03-25T07:37:38.523Z,82.19
2018-03-25T07:40:06.818Z,82.50
2018-03-25T07:42:35.101Z,82.83
2018-03-25T07:45:03.365Z,83.37
2018-03-25T07:47:31.624Z,83.21
2018-03-25T07:50:00.009Z,84.82
2018-03-25T07:52:28.261Z,84.49
2018-03-25T07:54:56.536Z,83.34
2018-03-25T07:57:24.796Z,82.83
2018-03-25T07:59:53.820Z,82.40
2018-03-25T08:02:22.135Z,82.35
2018-03-25T08:04:50.468Z,82.12
2018-03-25T08:07:18.796Z,82.16
2018-03-25T08:09:47.892Z,81.67
2018-03-25T08:12:16.195Z,81.67
2018-03-25T08:14:44.550Z,82.00
2018-03-25T08:17:12.890Z,81.63
2018-03-25T08:19:42.038Z,80.81
2018-03-25T08:22:11.146Z,80.52
2018-03-25T08:24:39.492Z,81.55
2018-03-25T08:27:09.316Z,80.79
2018-03-25T08:29:38.426Z,80.17
2018-03-25T08:32:06.734Z,79.68
2018-03-25T08:34:35.020Z,79.46
2018-03-25T08:37:03.295Z,80.65
2018-03-25T08:39:31.697Z,80.11
2018-03-25T08:41:59.954Z,79.96
2018-03-25T08:44:28.201Z,79.92
2018-03-25T08:46:56.523Z,78.95
2018-03-25T08:49:24.783Z,80.35
2018-03-25T08:51:53.047Z,80.01
2018-03-25T08:54:21.318Z,78.56
2018-03-25T08:56:49.571Z,77.22
2018-03-25T08:59:18.632Z,78.97
2018-03-25T09:01:46.888Z,77.69
2018-03-25T09:04:15.143Z,77.33
2018-03-25T09:06:43.420Z,76.82
2018-03-25T09:09:11.676Z,74.43
2018-03-25T09:11:40.720Z,74.16
2018-03-25T09:14:08.979Z,74.99
2018-03-25T09:16:37.420Z,74.22
2018-03-25T09:19:06.461Z,75.11
2018-03-25T09:21:34.736Z,74.34
2018-03-25T09:24:03.084Z,74.05
2018-03-25T09:26:31.361Z,72.60
2018-03-25T09:28:59.637Z,72.72
2018-03-25T09:31:27.891Z,71.92
2018-03-25T09:33:56.936Z,71.27
2018-03-25T09:36:25.202Z,70.00
2018-03-25T09:38:53.463Z,69.92
2018-03-25T09:41:21.741Z,69.79
2018-03-25T09:43:50.024Z,68.75
2018-03-25T09:46:18.279Z,68.09
2018-03-25T09:48:46.561Z,66.96
2018-03-25T09:51:14.847Z,64.02
2018-03-25T09:53:43.118Z,64.44
2018-03-25T09:56:11.435Z,63.42
2018-03-25T09:58:39.717Z,63.26
2018-03-25T10:01:14.454Z,63.55
2018-03-25T10:03:42.724Z,63.61
2018-03-25T10:06:10.999Z,64.16
2018-03-25T10:08:39.290Z,64.29
2018-03-25T10:11:07.568Z,64.02
2018-03-25T10:13:35.837Z,63.62
2018-03-25T10:16:04.138Z,62.49
2018-03-25T10:18:33.169Z,59.68
2018-03-25T10:21:01.429Z,58.46
2018-03-25T10:23:29.707Z,58.81
2018-03-25T10:25:59.644Z,56.89
2018-03-25T10:28:27.908Z,58.20
2018-03-25T10:30:56.195Z,57.37
2018-03-25T10:33:24.508Z,56.59
2018-03-25T10:35:52.768Z,54.69
2018-03-25T10:38:21.063Z,57.00
2018-03-25T10:40:49.319Z,54.13
2018-03-25T10:43:17.604Z,54.78
2018-03-25T10:45:45.871Z,55.08
2018-03-25T10:48:14.215Z,52.02
2018-03-25T10:50:42.471Z,51.09
2018-03-25T10:53:10.739Z,51.53
2018-03-25T10:55:39.789Z,49.01
2018-03-25T10:58:08.055Z,47.05
2018-03-25T11:00:36.335Z,47.83
2018-03-25T11:03:04.631Z,48.06
2018-03-25T11:05:33.032Z,49.35
2018-03-25T11:08:02.191Z,48.72
2018-03-25T11:10:30.482Z,47.97
2018-03-25T11:12:58.744Z,47.12
2018-03-25T11:15:27.049Z,46.94
2018-03-25T11:17:56.088Z,47.48
2018-03-25T11:20:24.359Z,46.49
2018-03-25T11:22:52.628Z,45.64
2018-03-25T11:25:20.932Z,46.03
2018-03-25T11:27:49.216Z,45.24
2018-03-25T11:30:17.479Z,44.60
2018-03-25T11:32:45.748Z,43.50
2018-03-25T11:35:14.074Z,44.90
2018-03-25T11:37:42.335Z,43.39
2018-03-25T11:40:10.612Z,43.50
2018-03-25T11:42:38.974Z,43.27
2018-03-25T11:45:07.463Z,44.28
2018-03-25T11:47:35.761Z,45.40
2018-03-25T11:50:04.035Z,46.12
2018-03-25T11:52:32.290Z,44.54
2018-03-25T11:55:00.555Z,43.90
2018-03-25T11:57:28.837Z,42.81
2018-03-25T11:59:57.196Z,43.00
2018-03-25T12:02:25.467Z,43.45
2018-03-25T12:04:53.754Z,44.83
2018-03-25T12:07:22.047Z,43.89
2018-03-25T12:09:50.325Z,43.05
2018-03-25T12:12:18.601Z,43.26
2018-03-25T12:14:46.871Z,42.34
2018-03-25T12:17:15.135Z,41.85
2018-03-25T12:19:43.411Z,41.65
2018-03-25T12:22:11.688Z,42.35
2018-03-25T12:24:39.949Z,39.60
2018-03-25T12:27:08.244Z,39.66
2018-03-25T12:29:36.507Z,41.43
2018-03-25T12:32:04.769Z,42.29
2018-03-25T12:34:33.048Z,39.57
2018-03-25T12:37:01.361Z,41.14
2018-03-25T12:39:29.600Z,41.42
2018-03-25T12:41:57.888Z,40.45
2018-03-25T12:44:26.141Z,38.51
2018-03-25T12:46:54.409Z,37.26
2018-03-25T12:49:23.452Z,37.13
2018-03-25T12:51:51.709Z,36.48
2018-03-25T12:54:19.970Z,36.28
2018-03-25T12:56:48.253Z,35.85
2018-03-25T12:59:16.520Z,36.72
2018-03-25T13:01:44.784Z,35.68
2018-03-25T13:04:14.032Z,36.51
2018-03-25T13:06:42.289Z,38.16
2018-03-25T13:09:10.548Z,38.29
2018-03-25T13:11:38.829Z,38.55
2018-03-25T13:14:07.098Z,38.43
2018-03-25T13:16:35.360Z,37.04
2018-03-25T13:19:04.406Z,36.27
2018-03-25T13:21:32.668Z,36.10
2018-03-25T13:24:00.925Z,35.99
2018-03-25T13:26:29.215Z,36.84
2018-03-25T13:28:57.528Z,35.35
2018-03-25T13:31:25.737Z,35.51
2018-03-25T13:33:54.776Z,36.84
2018-03-25T13:36:23.043Z,37.69
2018-03-25T13:38:51.311Z,39.24
2018-03-25T13:41:19.589Z,39.02
2018-03-25T13:43:47.843Z,39.46
2018-03-25T13:46:16.115Z,39.59
2018-03-25T13:48:44.411Z,38.54
2018-03-25T13:51:12.668Z,37.54
2018-03-25T13:53:40.940Z,37.80
2018-03-25T13:56:09.989Z,37.07
2018-03-25T13:58:38.250Z,37.27
2018-03-25T14:01:06.533Z,36.60
2018-03-25T14:03:34.793Z,34.67
2018-03-25T14:06:03.056Z,33.15
2018-03-25T14:08:32.091Z,32.53
2018-03-25T14:11:00.355Z,31.54
2018-03-25T14:13:28.615Z,29.76
2018-03-25T14:15:56.896Z,30.20
2018-03-25T14:18:25.159Z,30.87
2018-03-25T14:20:53.429Z,32.05
2018-03-25T14:23:21.845Z,30.71
2018-03-25T14:25:50.087Z,29.85
2018-03-25T14:28:18.358Z,29.45
2018-03-25T14:30:46.633Z,30.53
2018-03-25T14:33:14.896Z,32.75
2018-03-25T14:35:43.937Z,33.70
2018-03-25T14:38:12.219Z,33.91
2018-03-25T14:40:40.502Z,34.30
2018-03-25T14:43:08.837Z,35.53
2018-03-25T14:45:37.228Z,36.29
2018-03-25T14:48:05.614Z,37.93
2018-03-25T14:50:33.963Z,39.66
2018-03-25T14:53:02.254Z,39.21
2018-03-25T14:55:30.517Z,40.54
2018-03-25T14:57:58.803Z,40.29
2018-03-25T15:00:27.060Z,40.75
2018-03-25T15:02:55.332Z,42.82
2018-03-25T15:05:23.713Z,43.63
2018-03-25T15:07:51.981Z,44.27
2018-03-25T15:10:21.047Z,45.09
2018-03-25T15:12:49.343Z,45.69
2018-03-25T15:15:18.396Z,45.21
2018-03-25T15:17:46.681Z,45.18
2018-03-25T15:20:14.952Z,45.04
2018-03-25T15:22:43.231Z,44.86
2018-03-25T15:25:11.513Z,45.17
2018-03-25T15:27:39.780Z,45.56
2018-03-25T15:30:08.064Z,45.41
2018-03-25T15:32:36.344Z,46.54
2018-03-25T15:35:04.625Z,47.98
2018-03-25T15:37:32.906Z,47.93
2018-03-25T15:40:01.185Z,48.65
2018-03-25T15:42:29.459Z,49.05
2018-03-25T15:44:57.736Z,49.71
2018-03-25T15:47:26.036Z,50.07
2018-03-25T15:49:55.160Z,49.97
2018-03-25T15:52:23.469Z,49.22
2018-03-25T15:54:51.785Z,48.70
2018-03-25T15:57:20.830Z,47.89
2018-03-25T15:59:49.165Z,50.79
2018-03-25T16:02:18.314Z,50.99
2018-03-25T16:04:46.662Z,50.38
2018-03-25T16:07:14.985Z,50.88
2018-03-25T16:09:43.331Z,51.07
2018-03-25T16:12:11.793Z,51.55
2018-03-25T16:14:40.102Z,52.28
2018-03-25T16:17:08.383Z,52.21
2018-03-25T16:19:36.643Z,53.65
2018-03-25T16:22:05.067Z,52.56
2018-03-25T16:24:34.198Z,52.63
2018-03-25T16:27:02.493Z,52.70
2018-03-25T16:29:31.001Z,52.84
2018-03-25T16:32:00.334Z,53.34
2018-03-25T16:34:28.875Z,53.34
2018-03-25T16:36:57.273Z,53.64
2018-03-25T16:39:26.474Z,53.68
2018-03-25T16:41:55.636Z,53.59
2018-03-25T16:44:24.021Z,54.10
2018-03-25T16:46:52.463Z,54.00
2018-03-25T16:49:21.067Z,54.62
2018-03-25T16:51:51.060Z,54.65
2018-03-25T16:54:19.770Z,54.99
2018-03-25T16:56:49.644Z,54.98
2018-03-25T16:59:20.033Z,55.37
2018-03-25T17:01:49.000Z,55.71
2018-03-25T17:04:17.371Z,55.92
2018-03-25T17:06:45.759Z,55.41
2018-03-25T17:09:14.478Z,55.94
2018-03-25T17:11:45.297Z,56.26
2018-03-25T17:14:14.903Z,56.73
2018-03-25T17:16:45.434Z,57.31
2018-03-25T17:19:15.957Z,57.33
2018-03-25T17:21:46.822Z,58.03
2018-03-25T17:24:16.518Z,58.76
2018-03-25T17:26:46.488Z,58.93
2018-03-25T17:29:17.214Z,58.97
2018-03-25T17:31:47.099Z,59.05
2018-03-25T17:34:16.811Z,58.88
2018-03-25T17:36:46.765Z,59.35
2018-03-25T17:39:17.382Z,59.29
2018-03-25T17:41:47.156Z,59.10
2018-03-25T17:44:17.100Z,59.16
2018-03-25T17:46:48.412Z,59.59
2018-03-25T17:49:18.108Z,58.98
2018-03-25T17:51:48.035Z,59.36
2018-03-25T17:54:18.001Z,59.46
2018-03-25T17:56:47.524Z,59.40
2018-03-25T17:59:18.349Z,59.71
2018-03-25T18:01:48.975Z,59.96
2018-03-25T18:04:19.627Z,60.15
2018-03-25T18:06:50.326Z,60.88
2018-03-25T18:09:20.203Z,60.97
2018-03-25T18:11:50.226Z,61.17
2018-03-25T18:14:20.011Z,61.54
2018-03-25T18:16:50.233Z,61.43
2018-03-25T18:19:19.535Z,61.43
2018-03-25T18:21:48.912Z,61.50
2018-03-25T18:24:20.832Z,61.42
2018-03-25T18:26:50.201Z,62.00
2018-03-25T18:29:19.596Z,61.92
2018-03-25T18:31:51.077Z,62.07
2018-03-25T18:34:21.263Z,62.72
2018-03-25T18:36:51.190Z,62.46
2018-03-25T18:39:21.171Z,63.41
2018-03-25T18:41:51.830Z,63.74
2018-03-25T18:44:22.542Z,63.93
2018-03-25T18:46:53.369Z,64.76
2018-03-25T18:49:24.235Z,64.95
2018-03-25T18:51:54.953Z,64.92
2018-03-25T18:54:24.545Z,65.07
2018-03-25T18:56:54.876Z,65.50
2018-03-25T18:59:24.458Z,65.63
2018-03-25T19:01:53.770Z,65.62
2018-03-25T19:04:23.080Z,65.64
2018-03-25T19:06:53.244Z,65.08
2018-03-25T19:09:22.708Z,65.28
2018-03-25T19:11:53.867Z,65.38
2018-03-25T19:14:24.494Z,65.32
2018-03-25T19:16:54.687Z,65.65
2018-03-25T19:19:24.012Z,66.27
2018-03-25T19:21:54.215Z,65.79
2018-03-25T19:24:23.719Z,65.65
2018-03-25T19:26:53.710Z,66.75
2018-03-25T19:29:23.700Z,66.62
2018-03-25T19:31:53.707Z,67.06
2018-03-25T19:34:23.955Z,67.10
2018-03-25T19:36:53.843Z,67.74
2018-03-25T19:39:23.731Z,69.17
2018-03-25T19:41:53.753Z,69.71
2018-03-25T19:44:24.480Z,69.26
2018-03-25T19:46:55.239Z,69.16
2018-03-25T19:49:25.832Z,68.61
2018-03-25T19:51:55.702Z,68.54
2018-03-25T19:54:25.611Z,67.78
2018-03-25T19:56:55.670Z,67.60
2018-03-25T19:59:25.432Z,67.84
2018-03-25T20:01:56.459Z,67.26
2018-03-25T20:04:26.479Z,66.79
2018-03-25T20:06:56.562Z,66.76
2018-03-25T20:09:29.561Z,66.90
2018-03-25T20:12:00.419Z,66.99
2018-03-25T20:14:30.970Z,67.06
2018-03-25T20:17:01.911Z,66.97
2018-03-25T20:19:31.846Z,66.93
2018-03-25T20:22:02.219Z,66.86
2018-03-25T20:24:32.825Z,67.07
2018-03-25T20:27:02.238Z,67.08
2018-03-25T20:29:31.553Z,67.81
2018-03-25T20:32:00.996Z,68.60
2018-03-25T20:34:31.384Z,68.02
2018-03-25T20:37:01.400Z,67.55
2018-03-25T20:39:31.568Z,67.45
2018-03-25T20:42:00.961Z,67.75
2018-03-25T20:44:31.208Z,68.02
2018-03-25T20:47:00.748Z,67.97
2018-03-25T20:49:31.147Z,69.46
2018-03-25T20:52:00.432Z,69.39
2018-03-25T20:54:30.836Z,69.21
2018-03-25T20:57:00.165Z,69.11
2018-03-25T20:59:29.486Z,69.30
2018-03-25T21:01:58.861Z,69.53
2018-03-25T21:04:28.346Z,69.41
2018-03-25T21:06:57.691Z,69.41
2018-03-25T21:09:27.073Z,69.53
2018-03-25T21:11:56.399Z,69.71
2018-03-25T21:14:25.769Z,69.98
2018-03-25T21:16:55.957Z,69.96
2018-03-25T21:19:25.259Z,70.10
2018-03-25T21:21:55.471Z,71.67
2018-03-25T21:24:25.491Z,72.44
2018-03-25T21:26:54.945Z,73.37
2018-03-25T21:29:24.226Z,74.33
2018-03-25T21:31:53.554Z,74.62
2018-03-25T21:34:23.275Z,74.38
2018-03-25T21:36:53.773Z,74.72
2018-03-25T21:39:24.176Z,75.09
2018-03-25T21:41:53.896Z,75.45
2018-03-25T21:44:23.651Z,76.71
2018-03-25T21:46:53.367Z,77.90
2018-03-25T21:49:23.130Z,78.40
2018-03-25T21:51:52.960Z,77.87
2018-03-25T21:54:22.926Z,77.29
2018-03-25T21:56:53.077Z,77.90
2018-03-25T21:59:22.446Z,77.64
2018-03-25T22:01:50.997Z,78.12
2018-03-25T22:04:19.286Z,78.92
2018-03-25T22:06:47.568Z,79.29
2018-03-25T22:09:15.853Z,79.33
2018-03-25T22:11:44.143Z,79.06
2018-03-25T22:14:12.421Z,78.64
2018-03-25T22:16:40.700Z,77.66
2018-03-25T22:19:08.959Z,77.07
2018-03-25T22:21:37.237Z,76.74
2018-03-25T22:24:05.508Z,77.16
2018-03-25T22:26:33.764Z,77.46
2018-03-25T22:29:02.787Z,77.48
2018-03-25T22:31:31.062Z,77.35
2018-03-25T22:33:59.320Z,77.48
2018-03-25T22:36:27.577Z,77.43
2018-03-25T22:38:56.625Z,77.08
2018-03-25T22:41:24.889Z,77.02
2018-03-25T22:43:53.164Z,76.87
2018-03-25T22:46:21.430Z,76.67
2018-03-25T22:48:49.695Z,76.16
2018-03-25T22:51:17.971Z,76.04
2018-03-25T22:53:46.231Z,77.74
2018-03-25T22:56:15.292Z,77.36
2018-03-25T22:58:43.547Z,76.94
2018-03-25T23:01:11.834Z,76.66
2018-03-25T23:03:40.084Z,76.72
2018-03-25T23:06:08.373Z,77.86
2018-03-25T23:08:36.640Z,79.37
2018-03-25T23:11:04.900Z,78.64
2018-03-25T23:13:33.172Z,78.33
2018-03-25T23:16:01.447Z,78.16
2018-03-25T23:18:29.717Z,78.84
2018-03-25T23:20:58.003Z,80.95
2018-03-25T23:23:26.256Z,80.51
2018-03-25T23:25:55.296Z,81.08
2018-03-25T23:28:23.560Z,82.63
2018-03-25T23:30:51.840Z,81.90
2018-03-25T23:33:20.116Z,81.96
2018-03-25T23:35:48.381Z,82.60
2018-03-25T23:38:16.647Z,82.49
2018-03-25T23:40:44.915Z,83.67
2018-03-25T23:43:13.939Z,83.45
2018-03-25T23:45:42.195Z,82.57
2018-03-25T23:48:10.475Z,83.68
2018-03-25T23:50:38.729Z,83.74
2018-03-25T23:53:07.777Z,83.76
2018-03-25T23:55:36.032Z,83.50
2018-03-25T23:58:04.293Z,84.00
